sensor_id;sensor_type;location;lat;lon;timestamp;P1;durP1;ratioP1;P2;durP2;ratioP2
6499;SDS011;3283;52.330;9.772;2023-02-15T05:03:41;257.02;;;104.95;;
6499;SDS011;3283;52.330;9.772;2023-02-15T05:06:06;257.37;;;95.53;;
6499;SDS011;3283;52.330;9.772;2023-02-15T05:08:32;192.63;;;79.10;;
6499;SDS011;3283;52.330;9.772;2023-02-15T05:10:57;171.20;;;101.33;;
6499;SDS011;3283;52.330;9.772;2023-02-15T05:13:23;217.80;;;76.57;;
6499;SDS011;3283;52.330;9.772;2023-02-15T05:15:49;276.80;;;82.83;;
6499;SDS011;3283;52.330;9.772;2023-02-15T05:18:16;272.43;;;83.67;;
6499;SDS011;3283;52.330;9.772;2023-02-15T05:20:42;283.27;;;86.53;;
6499;SDS011;3283;52.330;9.772;2023-02-15T05:23:08;185.87;;;76.03;;
6499;SDS011;3283;52.330;9.772;2023-02-15T05:25:33;247.53;;;96.80;;
6499;SDS011;3283;52.330;9.772;2023-02-15T05:28:17;307.10;;;90.20;;
6499;SDS011;3283;52.330;9.772;2023-02-15T05:30:49;312.53;;;93.53;;
6499;SDS011;3283;52.330;9.772;2023-02-15T05:33:16;251.33;;;86.77;;
6499;SDS011;3283;52.330;9.772;2023-02-15T05:35:42;215.60;;;86.57;;
6499;SDS011;3283;52.330;9.772;2023-02-15T05:38:07;157.97;;;69.73;;
6499;SDS011;3283;52.330;9.772;2023-02-15T05:40:33;164.57;;;74.90;;
6499;SDS011;3283;52.330;9.772;2023-02-15T05:42:58;186.93;;;79.20;;
6499;SDS011;3283;52.330;9.772;2023-02-15T05:45:24;174.33;;;75.37;;
6499;SDS011;3283;52.330;9.772;2023-02-15T05:47:50;162.60;;;73.70;;
6499;SDS011;3283;52.330;9.772;2023-02-15T05:50:15;186.63;;;82.30;;
6499;SDS011;3283;52.330;9.772;2023-02-15T05:52:41;190.20;;;81.10;;
6499;SDS011;3283;52.330;9.772;2023-02-15T05:55:06;190.10;;;82.13;;
6499;SDS011;3283;52.330;9.772;2023-02-15T05:57:33;221.07;;;84.10;;
6499;SDS011;3283;52.330;9.772;2023-02-15T05:59:59;200.47;;;75.53;;
6499;SDS011;3283;52.330;9.772;2023-02-15T06:02:25;236.27;;;92.23;;
6499;SDS011;3283;52.330;9.772;2023-02-15T06:04:50;218.50;;;80.60;;
6499;SDS011;3283;52.330;9.772;2023-02-15T06:07:15;267.30;;;86.27;;
6499;SDS011;3283;52.330;9.772;2023-02-15T06:09:41;295.77;;;92.27;;
6499;SDS011;3283;52.330;9.772;2023-02-15T06:12:06;292.13;;;87.57;;
6499;SDS011;3283;52.330;9.772;2023-02-15T06:14:32;281.53;;;87.17;;
6499;SDS011;3283;52.330;9.772;2023-02-15T06:16:57;294.10;;;90.93;;
6499;SDS011;3283;52.330;9.772;2023-02-15T06:19:22;329.73;;;92.43;;
6499;SDS011;3283;52.330;9.772;2023-02-15T06:21:48;335.13;;;95.27;;
6499;SDS011;3283;52.330;9.772;2023-02-15T06:24:14;384.97;;;93.87;;
6499;SDS011;3283;52.330;9.772;2023-02-15T06:26:39;342.10;;;101.87;;
6499;SDS011;3283;52.330;9.772;2023-02-15T06:29:05;380.17;;;101.33;;
6499;SDS011;3283;52.330;9.772;2023-02-15T06:31:30;418.17;;;106.10;;
6499;SDS011;3283;52.330;9.772;2023-02-15T06:33:55;490.07;;;111.13;;
6499;SDS011;3283;52.330;9.772;2023-02-15T06:36:26;509.10;;;127.03;;
6499;SDS011;3283;52.330;9.772;2023-02-15T06:38:55;497.93;;;114.37;;
6499;SDS011;3283;52.330;9.772;2023-02-15T06:41:20;498.47;;;109.13;;
6499;SDS011;3283;52.330;9.772;2023-02-15T06:43:45;502.43;;;112.73;;
6499;SDS011;3283;52.330;9.772;2023-02-15T06:46:11;496.50;;;109.53;;
6499;SDS011;3283;52.330;9.772;2023-02-15T06:48:36;502.17;;;111.83;;
6499;SDS011;3283;52.330;9.772;2023-02-15T06:51:02;499.33;;;107.97;;
6499;SDS011;3283;52.330;9.772;2023-02-15T06:53:27;495.67;;;108.40;;
6499;SDS011;3283;52.330;9.772;2023-02-15T06:55:59;497.40;;;111.50;;
6499;SDS011;3283;52.330;9.772;2023-02-15T06:58:27;487.93;;;107.33;;
6499;SDS011;3283;52.330;9.772;2023-02-15T07:00:53;572.00;;;163.73;;
6499;SDS011;3283;52.330;9.772;2023-02-15T07:03:18;496.17;;;110.23;;
6499;SDS011;3283;52.330;9.772;2023-02-15T07:05:43;481.77;;;108.37;;
6499;SDS011;3283;52.330;9.772;2023-02-15T07:08:10;502.90;;;113.10;;
6499;SDS011;3283;52.330;9.772;2023-02-15T07:10:35;504.07;;;115.03;;
6499;SDS011;3283;52.330;9.772;2023-02-15T07:13:01;478.70;;;108.07;;
6499;SDS011;3283;52.330;9.772;2023-02-15T07:15:26;497.57;;;112.10;;
6499;SDS011;3283;52.330;9.772;2023-02-15T07:17:51;501.17;;;117.20;;
6499;SDS011;3283;52.330;9.772;2023-02-15T07:20:21;488.00;;;104.07;;
6499;SDS011;3283;52.330;9.772;2023-02-15T07:22:48;492.63;;;109.77;;
6499;SDS011;3283;52.330;9.772;2023-02-15T07:25:14;494.70;;;108.50;;
6499;SDS011;3283;52.330;9.772;2023-02-15T07:27:40;480.37;;;104.30;;
6499;SDS011;3283;52.330;9.772;2023-02-15T07:30:06;485.57;;;103.83;;
6499;SDS011;3283;52.330;9.772;2023-02-15T07:32:34;478.93;;;100.40;;
6499;SDS011;3283;52.330;9.772;2023-02-15T07:35:00;488.77;;;106.97;;
6499;SDS011;3283;52.330;9.772;2023-02-15T07:37:26;493.23;;;109.27;;
6499;SDS011;3283;52.330;9.772;2023-02-15T07:39:52;490.07;;;109.97;;
6499;SDS011;3283;52.330;9.772;2023-02-15T07:42:17;503.33;;;113.47;;
6499;SDS011;3283;52.330;9.772;2023-02-15T07:44:44;484.17;;;108.63;;
6499;SDS011;3283;52.330;9.772;2023-02-15T07:47:10;506.93;;;118.83;;
6499;SDS011;3283;52.330;9.772;2023-02-15T07:49:35;485.63;;;102.73;;
6499;SDS011;3283;52.330;9.772;2023-02-15T07:52:01;497.47;;;109.90;;
6499;SDS011;3283;52.330;9.772;2023-02-15T07:54:26;500.40;;;109.07;;
6499;SDS011;3283;52.330;9.772;2023-02-15T07:56:52;485.20;;;105.17;;
6499;SDS011;3283;52.330;9.772;2023-02-15T07:59:17;495.03;;;106.63;;
6499;SDS011;3283;52.330;9.772;2023-02-15T08:01:43;451.20;;;109.73;;
6499;SDS011;3283;52.330;9.772;2023-02-15T08:04:08;497.53;;;114.00;;
6499;SDS011;3283;52.330;9.772;2023-02-15T08:06:36;501.10;;;119.93;;
6499;SDS011;3283;52.330;9.772;2023-02-15T08:09:06;502.20;;;110.40;;
6499;SDS011;3283;52.330;9.772;2023-02-15T08:11:33;497.30;;;108.30;;
6499;SDS011;3283;52.330;9.772;2023-02-15T08:16:45;501.10;;;110.10;;
6499;SDS011;3283;52.330;9.772;2023-02-15T08:19:26;503.83;;;113.27;;
6499;SDS011;3283;52.330;9.772;2023-02-15T08:21:56;491.47;;;103.47;;
6499;SDS011;3283;52.330;9.772;2023-02-15T08:24:24;507.77;;;117.47;;
6499;SDS011;3283;52.330;9.772;2023-02-15T08:26:51;495.13;;;108.70;;
6499;SDS011;3283;52.330;9.772;2023-02-15T08:29:18;516.90;;;120.37;;
6499;SDS011;3283;52.330;9.772;2023-02-15T08:31:47;500.03;;;110.40;;
6499;SDS011;3283;52.330;9.772;2023-02-15T08:34:14;495.37;;;112.60;;
6499;SDS011;3283;52.330;9.772;2023-02-15T08:36:43;497.17;;;109.37;;
6499;SDS011;3283;52.330;9.772;2023-02-15T08:39:10;492.17;;;105.77;;
6499;SDS011;3283;52.330;9.772;2023-02-15T08:41:36;495.87;;;107.63;;
6499;SDS011;3283;52.330;9.772;2023-02-15T08:44:04;504.87;;;113.30;;
6499;SDS011;3283;52.330;9.772;2023-02-15T08:46:32;503.20;;;115.77;;
6499;SDS011;3283;52.330;9.772;2023-02-15T08:49:00;506.33;;;112.20;;
6499;SDS011;3283;52.330;9.772;2023-02-15T08:51:27;498.83;;;105.90;;
6499;SDS011;3283;52.330;9.772;2023-02-15T08:53:54;512.10;;;114.07;;
6499;SDS011;3283;52.330;9.772;2023-02-15T08:56:22;505.07;;;110.80;;
6499;SDS011;3283;52.330;9.772;2023-02-15T08:58:49;512.73;;;111.73;;
6499;SDS011;3283;52.330;9.772;2023-02-15T09:01:19;507.53;;;109.30;;
6499;SDS011;3283;52.330;9.772;2023-02-15T09:03:47;515.37;;;120.13;;
6499;SDS011;3283;52.330;9.772;2023-02-15T09:06:14;494.77;;;106.67;;
6499;SDS011;3283;52.330;9.772;2023-02-15T09:08:41;514.37;;;115.30;;
6499;SDS011;3283;52.330;9.772;2023-02-15T09:11:08;486.23;;;115.77;;
6499;SDS011;3283;52.330;9.772;2023-02-15T09:13:36;498.60;;;113.43;;
6499;SDS011;3283;52.330;9.772;2023-02-15T09:16:03;473.10;;;112.57;;
6499;SDS011;3283;52.330;9.772;2023-02-15T09:18:31;438.27;;;113.40;;
6499;SDS011;3283;52.330;9.772;2023-02-15T09:21:03;482.80;;;115.17;;
6499;SDS011;3283;52.330;9.772;2023-02-15T09:23:30;490.03;;;117.63;;
6499;SDS011;3283;52.330;9.772;2023-02-15T09:25:55;498.90;;;115.33;;
6499;SDS011;3283;52.330;9.772;2023-02-15T09:28:21;505.43;;;122.13;;
6499;SDS011;3283;52.330;9.772;2023-02-15T09:30:46;449.47;;;118.13;;
6499;SDS011;3283;52.330;9.772;2023-02-15T09:33:11;498.43;;;120.90;;
6499;SDS011;3283;52.330;9.772;2023-02-15T09:35:37;394.17;;;118.27;;
6499;SDS011;3283;52.330;9.772;2023-02-15T09:38:02;293.60;;;110.90;;
6499;SDS011;3283;52.330;9.772;2023-02-15T09:40:28;303.97;;;106.53;;
6499;SDS011;3283;52.330;9.772;2023-02-15T09:43:09;290.63;;;99.47;;
6499;SDS011;3283;52.330;9.772;2023-02-15T09:46:02;333.83;;;101.53;;
6499;SDS011;3283;52.330;9.772;2023-02-15T09:48:56;378.53;;;106.57;;
6499;SDS011;3283;52.330;9.772;2023-02-15T09:57:08;411.47;;;125.37;;
6499;SDS011;3283;52.330;9.772;2023-02-15T10:00:06;361.33;;;117.67;;
6499;SDS011;3283;52.330;9.772;2023-02-15T10:02:31;374.63;;;119.03;;
6499;SDS011;3283;52.330;9.772;2023-02-15T10:13:25;378.13;;;106.03;;
6499;SDS011;3283;52.330;9.772;2023-02-15T10:19:23;422.77;;;124.63;;
6499;SDS011;3283;52.330;9.772;2023-02-15T10:22:19;461.40;;;130.20;;
6499;SDS011;3283;52.330;9.772;2023-02-15T10:25:03;478.53;;;132.60;;
6499;SDS011;3283;52.330;9.772;2023-02-15T10:27:43;513.73;;;127.67;;
6499;SDS011;3283;52.330;9.772;2023-02-15T10:30:13;508.50;;;123.37;;
6499;SDS011;3283;52.330;9.772;2023-02-15T10:38:10;525.63;;;128.43;;
6499;SDS011;3283;52.330;9.772;2023-02-15T10:46:05;534.10;;;129.77;;
6499;SDS011;3283;52.330;9.772;2023-02-15T10:54:08;524.33;;;125.33;;
6499;SDS011;3283;52.330;9.772;2023-02-15T10:57:19;533.73;;;132.60;;
6499;SDS011;3283;52.330;9.772;2023-02-15T10:59:47;535.60;;;137.27;;
6499;SDS011;3283;52.330;9.772;2023-02-15T11:07:52;519.47;;;131.83;;
6499;SDS011;3283;52.330;9.772;2023-02-15T11:13:14;436.60;;;133.10;;
6499;SDS011;3283;52.330;9.772;2023-02-15T11:15:46;424.90;;;126.00;;
6499;SDS011;3283;52.330;9.772;2023-02-15T11:18:32;363.30;;;137.93;;
6499;SDS011;3283;52.330;9.772;2023-02-15T11:21:02;341.00;;;128.53;;
6499;SDS011;3283;52.330;9.772;2023-02-15T11:23:35;277.90;;;125.83;;
6499;SDS011;3283;52.330;9.772;2023-02-15T11:26:09;284.97;;;124.63;;
6499;SDS011;3283;52.330;9.772;2023-02-15T11:28:42;276.17;;;128.03;;
6499;SDS011;3283;52.330;9.772;2023-02-15T11:31:15;280.63;;;121.33;;
6499;SDS011;3283;52.330;9.772;2023-02-15T11:33:45;292.90;;;132.23;;
6499;SDS011;3283;52.330;9.772;2023-02-15T11:36:15;310.47;;;132.43;;
6499;SDS011;3283;52.330;9.772;2023-02-15T11:38:45;273.00;;;120.63;;
6499;SDS011;3283;52.330;9.772;2023-02-15T11:41:18;284.67;;;137.57;;
6499;SDS011;3283;52.330;9.772;2023-02-15T11:44:00;309.50;;;134.93;;
6499;SDS011;3283;52.330;9.772;2023-02-15T11:46:49;312.57;;;139.87;;
6499;SDS011;3283;52.330;9.772;2023-02-15T11:49:21;307.57;;;131.50;;
6499;SDS011;3283;52.330;9.772;2023-02-15T11:51:57;333.10;;;142.27;;
6499;SDS011;3283;52.330;9.772;2023-02-15T11:54:28;310.23;;;129.40;;
6499;SDS011;3283;52.330;9.772;2023-02-15T11:56:58;295.07;;;126.63;;
6499;SDS011;3283;52.330;9.772;2023-02-15T11:59:29;313.37;;;147.13;;
6499;SDS011;3283;52.330;9.772;2023-02-15T12:02:00;297.30;;;135.17;;
6499;SDS011;3283;52.330;9.772;2023-02-15T12:04:26;322.27;;;141.97;;
6499;SDS011;3283;52.330;9.772;2023-02-15T12:07:44;324.83;;;151.17;;
6499;SDS011;3283;52.330;9.772;2023-02-15T12:09:55;319.60;;;161.07;;
6499;SDS011;3283;52.330;9.772;2023-02-15T12:14:53;318.53;;;135.13;;
6499;SDS011;3283;52.330;9.772;2023-02-15T12:22:52;336.80;;;159.40;;
6499;SDS011;3283;52.330;9.772;2023-02-15T12:27:54;353.00;;;152.00;;
6499;SDS011;3283;52.330;9.772;2023-02-15T12:30:30;376.23;;;141.13;;
6499;SDS011;3283;52.330;9.772;2023-02-15T12:36:01;534.83;;;163.20;;
6499;SDS011;3283;52.330;9.772;2023-02-15T12:38:35;308.40;;;148.27;;
6499;SDS011;3283;52.330;9.772;2023-02-15T12:41:02;250.27;;;131.70;;
6499;SDS011;3283;52.330;9.772;2023-02-15T12:43:47;274.73;;;152.37;;
6499;SDS011;3283;52.330;9.772;2023-02-15T12:46:27;261.67;;;139.37;;
6499;SDS011;3283;52.330;9.772;2023-02-15T12:49:14;320.33;;;165.93;;
6499;SDS011;3283;52.330;9.772;2023-02-15T12:51:44;318.43;;;140.80;;
6499;SDS011;3283;52.330;9.772;2023-02-15T12:54:16;362.57;;;179.27;;
6499;SDS011;3283;52.330;9.772;2023-02-15T12:56:50;340.00;;;145.30;;
6499;SDS011;3283;52.330;9.772;2023-02-15T12:59:16;358.17;;;171.57;;
6499;SDS011;3283;52.330;9.772;2023-02-15T13:01:45;330.37;;;151.60;;
6499;SDS011;3283;52.330;9.772;2023-02-15T13:06:50;340.07;;;166.37;;
6499;SDS011;3283;52.330;9.772;2023-02-15T13:09:19;323.83;;;161.77;;
6499;SDS011;3283;52.330;9.772;2023-02-15T13:11:50;339.93;;;153.97;;
6499;SDS011;3283;52.330;9.772;2023-02-15T13:16:41;327.23;;;158.33;;
6499;SDS011;3283;52.330;9.772;2023-02-15T13:19:10;326.87;;;179.40;;
6499;SDS011;3283;52.330;9.772;2023-02-15T13:21:41;322.97;;;152.57;;
6499;SDS011;3283;52.330;9.772;2023-02-15T13:26:47;347.37;;;183.93;;
6499;SDS011;3283;52.330;9.772;2023-02-15T13:29:55;342.30;;;180.57;;
6499;SDS011;3283;52.330;9.772;2023-02-15T13:32:10;369.07;;;174.97;;
6499;SDS011;3283;52.330;9.772;2023-02-15T13:34:40;402.27;;;183.20;;
6499;SDS011;3283;52.330;9.772;2023-02-15T13:40:02;375.67;;;161.33;;
6499;SDS011;3283;52.330;9.772;2023-02-15T13:54:20;405.50;;;158.83;;
6499;SDS011;3283;52.330;9.772;2023-02-15T14:01:40;429.40;;;169.00;;
6499;SDS011;3283;52.330;9.772;2023-02-15T14:09:46;466.27;;;176.87;;
6499;SDS011;3283;52.330;9.772;2023-02-15T14:12:37;472.80;;;183.17;;
6499;SDS011;3283;52.330;9.772;2023-02-15T14:20:37;481.77;;;170.53;;
6499;SDS011;3283;52.330;9.772;2023-02-15T14:25:46;506.97;;;180.40;;
6499;SDS011;3283;52.330;9.772;2023-02-15T14:28:27;498.20;;;179.97;;
6499;SDS011;3283;52.330;9.772;2023-02-15T14:31:01;508.57;;;196.20;;
